Time;durP1;ratioP1;P1;durP2;ratioP2;P2;SDS_P1;SDS_P2;PMS_P1;PMS_P2;Temp;Humidity;BMP_temperature;BMP_pressure;BME280_temperature;BME280_humidity;BME280_pressure;Samples;Min_cycle;Max_cycle;Signal;HPM_P1;HPM_P2
2022/11/02 00:01:40;;;;;;;17.73;8.07;;;;;;;12.23;76.28;101291.94;5047756;28;20059;-64
2022/11/02 00:04:07;;;;;;;12.70;8.00;;;;;;;12.31;76.27;101307.41;5047427;28;20048;-64
2022/11/02 00:06:34;;;;;;;18.03;7.13;;;;;;;12.30;76.23;101306.53;5048342;28;20057;-63
2022/11/02 00:09:01;;;;;;;11.67;7.77;;;;;;;12.33;76.20;101305.16;5039779;28;20040;-64
2022/11/02 00:11:28;;;;;;;14.17;7.90;;;;;;;12.40;75.78;101310.50;5036237;28;20055;-65
2022/11/02 00:13:54;;;;;;;12.00;7.30;;;;;;;12.43;75.55;101308.00;5040429;28;20063;-64
2022/11/02 00:16:22;;;;;;;14.77;8.20;;;;;;;12.50;75.02;101305.78;5039777;28;20049;-64
2022/11/02 00:18:54;;;;;;;13.43;6.67;;;;;;;12.46;74.61;101310.25;5045391;28;20052;-63
2022/11/02 00:21:24;;;;;;;18.03;8.33;;;;;;;12.38;74.58;101313.59;5054636;28;20053;-64
2022/11/02 00:23:52;;;;;;;15.77;7.88;;;;;;;12.28;74.47;101307.94;5053150;28;20499;-65
2022/11/02 00:26:19;;;;;;;14.17;8.00;;;;;;;12.23;74.44;101299.50;5057697;28;20491;-65
2022/11/02 00:28:47;;;;;;;15.00;8.37;;;;;;;12.18;74.32;101303.16;5034197;28;20055;-64
2022/11/02 00:31:14;;;;;;;13.90;7.90;;;;;;;12.09;74.29;101304.78;5032361;28;20050;-65
2022/11/02 00:33:40;;;;;;;19.67;8.83;;;;;;;12.07;74.48;101302.25;5041893;28;20060;-65
2022/11/02 00:36:08;;;;;;;13.67;8.30;;;;;;;12.05;74.62;101293.28;5041633;28;20057;-64
2022/11/02 00:38:34;;;;;;;20.33;9.47;;;;;;;12.11;74.90;101293.31;5041138;28;20045;-64
2022/11/02 00:41:01;;;;;;;17.37;8.73;;;;;;;12.18;75.12;101296.72;5036964;28;20148;-64
2022/11/02 00:43:28;;;;;;;11.03;8.13;;;;;;;12.23;75.29;101294.75;5040261;28;20060;-65
2022/11/02 00:45:55;;;;;;;14.10;7.47;;;;;;;12.25;74.98;101283.28;5049398;28;20053;-65
2022/11/02 00:48:22;;;;;;;13.50;7.77;;;;;;;12.25;74.96;101283.28;5040882;28;20147;-63
2022/11/02 00:50:49;;;;;;;13.73;8.30;;;;;;;12.25;74.97;101286.09;5045960;28;20057;-64
2022/11/02 00:53:15;;;;;;;17.30;8.50;;;;;;;12.20;74.83;101286.06;5045156;28;20554;-64
2022/11/02 00:55:42;;;;;;;15.80;7.80;;;;;;;12.14;74.92;101270.38;5040473;28;20045;-64
2022/11/02 00:58:09;;;;;;;14.67;7.43;;;;;;;12.13;75.22;101268.66;5041839;28;20416;-65
2022/11/02 01:00:36;;;;;;;13.37;6.40;;;;;;;12.02;75.94;101260.22;5039800;28;20415;-64
2022/11/02 01:03:02;;;;;;;9.73;6.53;;;;;;;12.00;76.48;101265.28;5034134;28;20068;-64
2022/11/02 01:05:29;;;;;;;13.83;7.43;;;;;;;11.98;76.65;101256.28;5038308;28;20052;-64
2022/11/02 01:07:56;;;;;;;9.77;6.47;;;;;;;11.96;77.01;101255.72;5037217;28;20061;-65
2022/11/02 01:10:24;;;;;;;10.57;6.83;;;;;;;11.95;76.86;101254.03;5040809;28;20483;-65
2022/11/02 01:12:51;;;;;;;15.57;6.53;;;;;;;11.98;77.02;101249.84;5038944;28;20052;-65
2022/11/02 01:15:18;;;;;;;13.83;7.20;;;;;;;11.99;77.29;101251.53;5041612;28;20065;-65
2022/11/02 01:17:45;;;;;;;11.43;5.40;;;;;;;11.95;77.21;101242.84;5037994;28;20056;-65
2022/11/02 01:20:13;;;;;;;13.13;7.70;;;;;;;11.97;77.11;101240.63;5040295;28;20049;-64
2022/11/02 01:22:39;;;;;;;12.70;6.93;;;;;;;11.92;77.08;101236.94;5037430;28;20041;-65
2022/11/02 01:25:07;;;;;;;12.87;7.67;;;;;;;11.77;77.31;101223.72;5034245;28;20045;-64
2022/11/02 01:27:33;;;;;;;13.17;7.40;;;;;;;11.79;77.43;101241.03;5033864;28;20046;-65
2022/11/02 01:30:01;;;;;;;11.70;7.43;;;;;;;11.75;77.74;101237.94;5044619;28;20049;-64
2022/11/02 01:32:29;;;;;;;13.30;6.73;;;;;;;11.70;77.43;101223.13;5051588;28;20082;-65
2022/11/02 01:34:56;;;;;;;13.53;7.13;;;;;;;11.69;77.65;101215.81;5052879;28;20045;-63
2022/11/02 01:37:23;;;;;;;10.50;6.17;;;;;;;11.66;77.69;101220.03;5053550;28;20060;-64
2022/11/02 01:39:50;;;;;;;10.73;6.83;;;;;;;11.62;78.09;101211.31;5042776;28;20053;-64
2022/11/02 01:42:22;;;;;;;17.70;7.13;;;;;;;11.58;78.19;101195.34;5038559;28;20054;-64
2022/11/02 01:44:49;;;;;;;10.70;5.93;;;;;;;11.59;78.57;101208.22;5038729;28;20057;-63
2022/11/02 01:47:36;;;;;;;7.63;6.07;;;;;;;11.53;78.61;101198.97;5046716;28;20057;-63
2022/11/02 01:50:09;;;;;;;7.13;4.47;;;;;;;11.57;78.83;101193.66;5033604;28;20048;-64
2022/11/02 01:52:37;;;;;;;5.60;4.80;;;;;;;11.59;78.90;101200.69;5037047;28;20045;-64
2022/11/02 01:55:21;;;;;;;14.53;6.43;;;;;;;11.57;78.86;101197.28;5038535;28;20053;-64
2022/11/02 01:57:58;;;;;;;12.03;6.40;;;;;;;11.57;78.78;101191.69;5035611;28;20050;-64
2022/11/02 02:00:25;;;;;;;6.87;5.33;;;;;;;11.62;78.57;101194.53;5042191;28;20055;-64
2022/11/02 02:03:03;;;;;;;12.53;7.10;;;;;;;11.59;78.58;101200.69;5046819;28;20068;-63
2022/11/02 02:05:32;;;;;;;11.97;7.70;;;;;;;11.62;78.53;101204.88;5029322;28;20502;-62
2022/11/02 02:08:01;;;;;;;13.73;7.63;;;;;;;11.56;78.48;101200.38;5028430;28;20064;-62
2022/11/02 02:10:29;;;;;;;12.82;7.60;;;;;;;11.54;78.57;101199.78;5039676;28;20102;-63
2022/11/02 02:12:56;;;;;;;15.07;7.80;;;;;;;11.48;78.83;101196.13;5031012;28;20049;-63
2022/11/02 02:15:26;;;;;;;16.33;8.23;;;;;;;11.49;78.31;101195.03;5045316;28;20053;-62
2022/11/02 02:17:59;;;;;;;12.33;7.63;;;;;;;11.46;78.32;101203.97;5032278;28;20045;-63
2022/11/02 02:20:40;;;;;;;13.93;8.43;;;;;;;11.42;78.13;101194.44;5032238;28;20128;-64
2022/11/02 02:23:44;;;;;;;16.80;7.57;;;;;;;11.36;78.31;101199.13;5036558;28;20053;-63
2022/11/02 02:26:27;;;;;;;14.57;8.43;;;;;;;11.41;78.00;101198.31;5044836;28;20460;-63
2022/11/02 02:29:10;;;;;;;17.40;7.83;;;;;;;11.37;77.86;101205.56;5055996;28;20052;-64
2022/11/02 02:31:45;;;;;;;15.23;8.20;;;;;;;11.23;78.16;101201.56;5031308;28;20049;-63
2022/11/02 02:34:19;;;;;;;10.97;7.80;;;;;;;11.22;78.07;101206.31;5031414;28;20053;-63
2022/11/02 02:36:59;;;;;;;14.27;7.97;;;;;;;11.22;78.21;101205.47;5066738;28;20056;-66
2022/11/02 02:39:45;;;;;;;11.05;6.80;;;;;;;11.17;78.32;101203.47;5035734;28;20510;-64
2022/11/02 02:42:39;;;;;;;13.47;7.63;;;;;;;11.13;78.40;101202.34;5050192;28;20129;-64
2022/11/02 02:45:23;;;;;;;19.40;7.93;;;;;;;11.10;78.15;101197.28;5037643;28;20718;-63
2022/11/02 02:48:10;;;;;;;12.77;8.97;;;;;;;11.06;78.19;101196.97;5037175;28;20041;-64
2022/11/02 02:50:46;;;;;;;12.87;7.67;;;;;;;11.08;78.38;101193.94;5039705;28;20046;-65
2022/11/02 02:53:15;;;;;;;9.40;7.27;;;;;;;11.07;78.53;101189.41;5037720;28;20045;-65
2022/11/02 02:55:45;;;;;;;17.27;8.77;;;;;;;11.05;78.56;101203.69;5042738;28;20088;-64
2022/11/02 02:58:18;;;;;;;13.38;6.72;;;;;;;11.02;78.93;101200.59;5030980;28;20045;-64
2022/11/02 03:00:45;;;;;;;11.67;7.60;;;;;;;11.02;79.13;101197.78;5035299;28;20476;-65
2022/11/02 03:03:17;;;;;;;12.17;7.70;;;;;;;11.02;79.00;101201.41;5035098;28;20530;-62
2022/11/02 03:05:59;;;;;;;12.17;7.03;;;;;;;10.92;79.11;101190.16;5046826;28;20511;-63
2022/11/02 03:08:26;;;;;;;8.23;6.60;;;;;;;10.84;79.55;101190.66;5040050;28;20060;-63
2022/11/02 03:11:12;;;;;;;9.00;6.27;;;;;;;10.68;79.72;101179.34;5050318;28;20053;-63
2022/11/02 03:13:39;;;;;;;9.30;6.70;;;;;;;10.66;80.20;101187.13;5038868;28;20049;-62
2022/11/02 03:16:57;;;;;;;5.80;5.00;;;;;;;10.49;80.73;101174.41;5048479;28;20053;-62
2022/11/02 03:19:48;;;;;;;7.93;5.63;;;;;;;10.47;81.11;101171.06;5033650;28;20049;-62
2022/11/02 03:22:53;;;;;;;6.13;5.27;;;;;;;10.43;80.98;101170.75;5042848;28;20526;-63
2022/11/02 03:25:27;;;;;;;6.97;5.10;;;;;;;10.32;81.36;101171.72;5019542;28;20049;-62
2022/11/02 03:28:05;;;;;;;10.17;5.10;;;;;;;10.28;81.58;101163.03;5048696;28;20419;-62
2022/11/02 03:30:41;;;;;;;9.13;5.47;;;;;;;10.19;81.56;101154.28;5035917;28;20096;-62
2022/11/02 03:33:42;;;;;;;6.07;5.17;;;;;;;10.11;81.93;101168.69;5038402;28;20057;-62
2022/11/02 03:36:19;;;;;;;5.77;4.87;;;;;;;10.10;82.00;101167.03;5033163;28;20524;-63
2022/11/02 03:38:59;;;;;;;6.20;5.67;;;;;;;10.06;81.94;101168.66;5033572;28;20053;-63
2022/11/02 03:41:27;;;;;;;6.53;4.97;;;;;;;9.98;82.28;101163.53;5052495;28;20045;-63
2022/11/02 03:44:03;;;;;;;8.00;5.23;;;;;;;9.90;82.68;101155.63;5041816;28;20053;-62
2022/11/02 03:46:33;;;;;;;10.57;6.90;;;;;;;9.95;82.50;101164.06;5041291;28;20080;-62
2022/11/02 03:49:02;;;;;;;9.43;6.60;;;;;;;9.99;82.68;101159.66;5050181;28;20504;-62
2022/11/02 03:51:37;;;;;;;12.63;6.73;;;;;;;10.04;82.31;101162.47;5031685;28;20057;-62
2022/11/02 03:54:15;;;;;;;14.93;7.65;;;;;;;10.09;82.22;101164.50;5033637;28;20049;-61
2022/11/02 03:56:49;;;;;;;9.77;6.87;;;;;;;10.14;81.88;101168.16;5045727;28;20049;-62
2022/11/02 03:59:16;;;;;;;11.73;6.63;;;;;;;10.15;81.41;101164.31;5046016;28;20095;-62
2022/11/02 04:01:49;;;;;;;8.90;6.37;;;;;;;10.25;81.34;101157.13;5038763;28;20045;-62
2022/11/02 04:04:16;;;;;;;16.23;7.37;;;;;;;10.32;81.21;101163.34;5036025;28;20455;-62
2022/11/02 04:06:46;;;;;;;8.53;7.17;;;;;;;10.39;80.82;101173.22;5038534;28;20072;-63
2022/11/02 04:09:13;;;;;;;11.23;6.80;;;;;;;10.43;80.63;101177.16;5042572;28;20049;-62
2022/11/02 04:14:37;;;;;;;11.90;7.40;;;;;;;10.43;80.68;101154.84;5043868;28;20053;-64
2022/11/02 04:19:59;;;;;;;10.63;6.63;;;;;;;10.42;80.71;101141.13;5047306;28;20098;-63
2022/11/02 04:25:17;;;;;;;8.97;5.20;;;;;;;10.42;80.63;101141.13;5042683;28;20056;-62
2022/11/02 04:27:49;;;;;;;9.03;6.87;;;;;;;10.41;80.72;101145.88;5052764;28;20080;-62
2022/11/02 04:30:19;;;;;;;4.63;3.53;;;;;;;10.38;80.82;101145.56;5049779;28;20046;-63
2022/11/02 04:35:34;;;;;;;8.87;5.77;;;;;;;10.39;80.70;101158.41;5044660;28;20060;-63
2022/11/02 04:40:47;;;;;;;8.23;5.80;;;;;;;10.33;80.62;101163.13;5044507;28;20056;-63
2022/11/02 04:43:13;;;;;;;11.20;7.37;;;;;;;10.29;80.50;101163.88;5036062;28;20060;-63
2022/11/02 04:45:40;;;;;;;9.73;6.17;;;;;;;10.28;80.67;101165.00;5036436;28;20060;-62
2022/11/02 04:48:08;;;;;;;9.90;7.23;;;;;;;10.33;80.12;101190.19;5042942;28;20053;-62
2022/11/02 04:50:36;;;;;;;13.43;8.60;;;;;;;10.39;79.81;101203.06;5043299;28;20045;-63
2022/11/02 04:53:04;;;;;;;11.53;6.87;;;;;;;10.43;79.55;101188.34;5044436;28;20049;-63
2022/11/02 04:55:31;;;;;;;13.73;8.03;;;;;;;10.44;79.51;101194.75;5033222;28;20064;-62
2022/11/02 04:57:58;;;;;;;10.90;7.43;;;;;;;10.42;79.24;101186.63;5042616;28;20049;-62
2022/11/02 05:00:24;;;;;;;8.83;7.23;;;;;;;10.46;79.06;101186.09;5034168;28;20533;-62
2022/11/02 05:02:51;;;;;;;12.73;8.00;;;;;;;10.47;78.79;101185.84;5032504;28;20045;-62
2022/11/02 05:05:18;;;;;;;11.60;7.17;;;;;;;10.50;78.92;101188.13;5031326;28;20103;-64
2022/11/02 05:07:45;;;;;;;9.63;6.50;;;;;;;10.51;78.71;101175.84;5043800;28;20049;-62
2022/11/02 05:10:12;;;;;;;12.60;7.70;;;;;;;10.47;78.75;101163.53;5040769;28;20045;-63
2022/11/02 05:12:38;;;;;;;10.27;6.10;;;;;;;10.53;78.84;101170.84;5035976;28;20057;-63
2022/11/02 05:15:06;;;;;;;11.30;6.37;;;;;;;10.50;78.76;101165.78;5033262;28;20053;-63
2022/11/02 05:17:32;;;;;;;9.43;5.87;;;;;;;10.51;78.96;101163.84;5037157;28;20060;-62
2022/11/02 05:19:59;;;;;;;11.20;6.87;;;;;;;10.47;79.04;101166.31;5033805;28;20049;-63
2022/11/02 05:22:26;;;;;;;10.07;6.57;;;;;;;10.45;79.18;101168.50;5039711;28;20053;-63
2022/11/02 05:24:53;;;;;;;13.80;7.27;;;;;;;10.40;79.25;101174.06;5063288;28;20056;-63
2022/11/02 05:27:20;;;;;;;10.57;6.70;;;;;;;10.47;79.30;101185.84;5032295;28;20049;-62
2022/11/02 05:29:46;;;;;;;11.67;6.50;;;;;;;10.44;79.31;101180.81;5040639;28;20492;-63
2022/11/02 05:32:13;;;;;;;9.73;6.57;;;;;;;10.40;79.24;101174.06;5043686;28;20061;-63
2022/11/02 05:34:40;;;;;;;6.13;5.03;;;;;;;10.33;79.56;101176.22;5031534;28;20057;-62
2022/11/02 05:37:06;;;;;;;8.63;5.60;;;;;;;10.26;79.98;101184.81;5049790;28;20048;-62
2022/11/02 05:39:34;;;;;;;9.60;6.00;;;;;;;10.11;80.20;101174.28;5039420;28;20045;-63
2022/11/02 05:42:01;;;;;;;13.17;7.03;;;;;;;10.15;80.21;101181.03;5035746;28;20072;-63
2022/11/02 05:44:27;;;;;;;10.73;6.43;;;;;;;10.13;80.27;101182.41;5043622;28;20191;-62
2022/11/02 05:46:54;;;;;;;9.47;6.17;;;;;;;10.12;80.37;101180.69;5037898;28;20418;-62
2022/11/02 05:49:21;;;;;;;10.20;6.37;;;;;;;10.09;80.17;101181.25;5051374;28;20048;-62
2022/11/02 05:51:48;;;;;;;8.07;5.90;;;;;;;10.06;80.39;101179.81;5038897;28;20056;-63
2022/11/02 05:54:15;;;;;;;7.87;5.90;;;;;;;10.06;80.24;101181.78;5046143;28;20220;-62
2022/11/02 05:56:42;;;;;;;10.40;5.73;;;;;;;10.10;80.22;101186.56;5044644;28;20049;-62
2022/11/02 05:59:09;;;;;;;13.47;5.47;;;;;;;10.07;80.16;101187.06;5036145;28;20447;-63
2022/11/02 06:01:36;;;;;;;10.63;4.97;;;;;;;10.02;80.42;101181.44;5045607;28;20056;-63
2022/11/02 06:04:02;;;;;;;9.00;5.60;;;;;;;10.01;80.65;101190.06;5031580;28;20579;-64
2022/11/02 06:06:29;;;;;;;9.97;6.80;;;;;;;9.98;80.64;101183.06;5038706;28;20079;-63
2022/11/02 06:08:56;;;;;;;5.93;4.67;;;;;;;9.97;80.59;101189.75;5039193;28;20064;-63
2022/11/02 06:11:29;;;;;;;9.73;6.13;;;;;;;9.94;80.70;101179.94;5040783;28;20129;-63
2022/11/02 06:13:56;;;;;;;10.03;5.40;;;;;;;9.87;81.12;101170.09;5041413;28;20450;-62
2022/11/02 06:16:23;;;;;;;9.33;5.50;;;;;;;9.83;80.84;101180.09;5038874;28;20057;-62
2022/11/02 06:18:50;;;;;;;9.70;6.30;;;;;;;9.81;81.20;101173.94;5042925;28;20052;-63
2022/11/02 06:21:17;;;;;;;6.73;5.13;;;;;;;9.77;81.14;101173.59;5035257;28;20043;-63
2022/11/02 06:23:48;;;;;;;11.20;6.23;;;;;;;9.81;81.06;101185.09;5041028;28;20056;-63
2022/11/02 06:26:15;;;;;;;9.63;6.20;;;;;;;9.84;80.94;101188.19;5044488;28;20906;-62
2022/11/02 06:28:42;;;;;;;12.07;6.70;;;;;;;9.89;80.65;101181.84;5044541;28;20538;-63
2022/11/02 06:31:09;;;;;;;7.60;5.73;;;;;;;9.88;80.59;101163.41;5040116;28;20063;-63
2022/11/02 06:33:35;;;;;;;15.53;7.53;;;;;;;9.87;80.65;101150.56;5032938;28;20049;-63
2022/11/02 06:36:02;;;;;;;7.23;5.10;;;;;;;9.84;80.76;101142.72;5037885;28;20436;-63
2022/11/02 06:38:29;;;;;;;10.03;5.33;;;;;;;9.77;81.15;101140.13;5038139;28;20053;-62
2022/11/02 06:41:02;;;;;;;6.17;5.30;;;;;;;9.70;80.75;101137.53;5041870;28;20052;-63
2022/11/02 06:43:29;;;;;;;7.13;5.30;;;;;;;9.65;81.22;101137.50;5036216;28;20416;-62
2022/11/02 06:45:57;;;;;;;6.17;4.87;;;;;;;9.64;81.70;101152.56;5038893;28;20060;-61
2022/11/02 06:48:25;;;;;;;7.17;5.57;;;;;;;9.63;81.28;101144.44;5044686;28;20419;-62
2022/11/02 06:51:00;;;;;;;9.60;6.87;;;;;;;9.65;81.54;101143.06;5044424;28;20048;-62
2022/11/02 06:53:27;;;;;;;7.70;4.97;;;;;;;9.67;80.94;101152.00;5034172;28;20067;-62
2022/11/02 06:55:56;;;;;;;9.97;5.53;;;;;;;9.62;81.07;101145.53;5038898;28;20419;-63
2022/11/02 06:58:23;;;;;;;9.10;4.17;;;;;;;9.58;81.39;101153.59;5040983;28;20053;-62
2022/11/02 07:00:56;;;;;;;7.80;4.77;;;;;;;9.52;81.61;101149.03;5037960;28;20037;-63
2022/11/02 07:03:23;;;;;;;4.40;4.00;;;;;;;9.51;81.84;101149.31;5032901;28;20057;-64
2022/11/02 07:05:51;;;;;;;7.33;6.57;;;;;;;9.46;81.82;101133.34;5036863;28;20049;-62
2022/11/02 07:08:19;;;;;;;7.93;5.80;;;;;;;9.53;81.85;101133.97;5037728;28;21563;-63
2022/11/02 07:10:46;;;;;;;6.97;5.13;;;;;;;9.57;81.50;101132.38;5036617;28;20062;-63
2022/11/02 07:13:13;;;;;;;7.57;5.77;;;;;;;9.56;81.50;101139.03;5048580;28;20535;-61
2022/11/02 07:15:40;;;;;;;8.60;5.87;;;;;;;9.44;81.63;101127.19;5052838;28;20059;-62
2022/11/02 07:18:07;;;;;;;10.63;5.83;;;;;;;9.42;81.91;101123.81;5037095;28;20045;-62
2022/11/02 07:20:34;;;;;;;5.50;3.43;;;;;;;9.34;82.32;101116.75;5036862;28;20050;-62
2022/11/02 07:23:02;;;;;;;4.23;3.93;;;;;;;9.39;82.38;101130.75;5036353;28;20072;-63
2022/11/02 07:25:32;;;;;;;6.77;5.40;;;;;;;9.41;82.56;101133.28;5037902;28;20516;-63
2022/11/02 07:28:00;;;;;;;7.13;6.20;;;;;;;9.48;82.57;101136.72;5043062;28;20124;-61
2022/11/02 07:30:28;;;;;;;6.83;6.23;;;;;;;9.57;82.52;101145.47;5044139;28;20111;-63
2022/11/02 07:32:56;;;;;;;15.43;7.00;;;;;;;9.63;82.45;101134.09;5037872;28;20164;-62
2022/11/02 07:35:22;;;;;;;12.33;5.97;;;;;;;9.76;82.39;101126.47;5045720;28;20118;-62
2022/11/02 07:38:00;;;;;;;9.10;6.30;;;;;;;9.88;82.10;101125.22;5036477;28;20087;-63
2022/11/02 07:40:28;;;;;;;7.47;5.07;;;;;;;10.07;81.65;101128.47;5041741;28;20050;-62
2022/11/02 07:42:55;;;;;;;9.43;5.70;;;;;;;10.18;81.22;101135.84;5034041;28;20050;-62
2022/11/02 07:45:23;;;;;;;5.97;5.37;;;;;;;10.35;81.01;101134.91;5041102;28;20056;-63
2022/11/02 07:47:50;;;;;;;10.97;6.53;;;;;;;10.53;80.66;101144.84;5038585;28;20044;-64
2022/11/02 07:50:20;;;;;;;7.23;5.83;;;;;;;10.70;80.28;101140.00;5038820;28;20419;-62
2022/11/02 07:52:51;;;;;;;7.97;5.77;;;;;;;10.83;80.04;101155.44;5038023;28;20442;-63
2022/11/02 07:55:21;;;;;;;8.17;5.40;;;;;;;11.04;79.82;101160.09;5038639;28;20053;-62
2022/11/02 07:58:08;;;;;;;32.60;15.20;;;;;;;11.14;79.49;101168.53;5043820;28;20056;-62
2022/11/02 08:00:38;;;;;;;28.60;16.47;;;;;;;11.26;78.95;101150.69;5035466;28;20399;-62
2022/11/02 08:03:06;;;;;;;22.63;14.07;;;;;;;11.36;78.68;101162.78;5035913;28;20345;-63
2022/11/02 08:05:37;;;;;;;15.53;9.53;;;;;;;11.43;78.57;101156.94;5037473;28;20065;-63
2022/11/02 08:08:11;;;;;;;14.87;8.90;;;;;;;11.48;78.30;101162.56;5038872;28;20052;-62
2022/11/02 08:10:38;;;;;;;12.90;7.90;;;;;;;11.61;78.20;101180.81;5036170;28;20045;-62
2022/11/02 08:13:07;;;;;;;20.07;11.17;;;;;;;11.66;77.75;101182.78;5041632;28;20061;-63
2022/11/02 08:15:35;;;;;;;13.00;10.87;;;;;;;11.74;77.67;101179.47;5036439;28;20064;-62
2022/11/02 08:18:07;;;;;;;17.83;11.17;;;;;;;11.94;77.53;101190.78;5039574;28;20049;-62
2022/11/02 08:20:35;;;;;;;31.37;20.30;;;;;;;12.07;77.29;101200.63;5050155;28;20135;-63
2022/11/02 08:23:03;;;;;;;36.47;21.07;;;;;;;12.22;77.26;101202.63;5037739;28;20530;-63
2022/11/02 08:25:30;;;;;;;18.23;13.50;;;;;;;12.41;76.88;101192.59;5035262;28;20435;-61
2022/11/02 08:27:58;;;;;;;18.90;14.00;;;;;;;12.60;76.33;101204.09;5032361;28;20643;-62
2022/11/02 08:30:27;;;;;;;14.47;10.03;;;;;;;12.88;76.47;101199.06;5039449;28;20525;-62
2022/11/02 08:32:54;;;;;;;11.97;7.93;;;;;;;13.41;76.12;101202.44;5037164;28;20050;-62
2022/11/02 08:35:23;;;;;;;8.40;7.32;;;;;;;14.30;75.39;101200.66;5037608;28;20056;-62
2022/11/02 08:37:56;;;;;;;11.30;6.90;;;;;;;15.17;73.67;101188.78;5042597;28;20127;-63
2022/11/02 08:40:23;;;;;;;6.43;5.80;;;;;;;15.80;71.75;101196.31;5043003;28;20057;-62
2022/11/02 08:42:56;;;;;;;7.20;6.00;;;;;;;16.06;70.44;101199.63;5039010;28;20045;-63
2022/11/02 08:45:23;;;;;;;12.10;6.80;;;;;;;16.25;69.99;101196.84;5034799;28;20080;-63
2022/11/02 08:47:50;;;;;;;11.23;5.93;;;;;;;16.32;68.97;101180.41;5040486;28;20052;-63
2022/11/02 08:50:17;;;;;;;10.32;4.88;;;;;;;16.45;68.35;101161.88;5038817;28;20554;-63
2022/11/02 08:52:44;;;;;;;5.07;4.68;;;;;;;16.23;66.90;101160.50;5044203;28;20083;-63
2022/11/02 08:55:10;;;;;;;6.45;5.10;;;;;;;15.34;66.82;101154.56;5039201;28;20404;-62
2022/11/02 08:57:54;;;;;;;9.07;5.55;;;;;;;14.51;67.19;101164.88;5047083;28;20057;-62
2022/11/02 09:00:24;;;;;;;6.38;5.18;;;;;;;14.05;67.36;101167.94;5037229;28;20053;-62
2022/11/02 09:03:17;;;;;;;5.78;5.15;;;;;;;13.39;68.02;101180.25;5039245;28;20045;-62
2022/11/02 09:05:56;;;;;;;7.78;6.97;;;;;;;13.77;68.50;101180.69;5037595;28;20077;-62
2022/11/02 09:08:24;;;;;;;7.20;6.10;;;;;;;15.04;67.79;101166.94;5034525;28;20054;-62
2022/11/02 09:10:52;;;;;;;11.07;6.18;;;;;;;16.52;65.68;101145.44;5038576;28;20049;-62
2022/11/02 09:13:23;;;;;;;7.82;4.82;;;;;;;18.20;63.07;101138.56;5040190;28;20052;-62
2022/11/02 09:15:53;;;;;;;7.28;5.53;;;;;;;19.55;60.11;101128.00;5042009;28;20466;-62
2022/11/02 09:18:20;;;;;;;6.97;4.65;;;;;;;20.07;58.01;101133.03;5042751;28;20054;-62
2022/11/02 09:20:47;;;;;;;7.72;4.80;;;;;;;20.07;55.39;101133.88;5042700;28;20518;-62
2022/11/02 09:23:15;;;;;;;5.70;4.45;;;;;;;19.59;54.20;101142.38;5035857;28;20053;-64
2022/11/02 09:25:42;;;;;;;6.97;6.20;;;;;;;19.65;54.74;101158.91;5041747;28;20071;-63
2022/11/02 09:28:09;;;;;;;5.40;4.90;;;;;;;19.69;53.95;101144.09;5046819;28;20056;-62
2022/11/02 09:30:36;;;;;;;6.03;5.53;;;;;;;19.88;53.14;101142.66;5049868;28;20065;-62
2022/11/02 09:33:04;;;;;;;5.90;4.72;;;;;;;19.24;53.00;101147.03;5043522;28;20503;-61
2022/11/02 09:35:36;;;;;;;7.85;5.47;;;;;;;19.39;53.82;101149.44;5042224;28;20053;-62
2022/11/02 09:38:03;;;;;;;9.00;5.50;;;;;;;19.54;53.28;101149.00;5040864;28;20068;-62
2022/11/02 09:40:37;;;;;;;8.18;5.75;;;;;;;19.10;52.63;101133.78;5041940;28;20522;-62
2022/11/02 09:43:37;;;;;;;13.45;5.93;;;;;;;19.50;54.09;101130.16;5046437;28;20052;-63
2022/11/02 09:46:09;;;;;;;8.73;4.95;;;;;;;19.47;52.53;101144.97;5039166;28;20084;-63
2022/11/02 09:49:14;;;;;;;6.57;4.88;;;;;;;19.47;53.65;101139.31;5032883;28;20060;-63
2022/11/02 09:51:45;;;;;;;5.55;4.90;;;;;;;19.86;53.04;101146.97;5033319;28;20053;-62
2022/11/02 09:54:26;;;;;;;4.68;4.13;;;;;;;19.88;52.30;101133.31;5042407;28;20496;-62
2022/11/02 09:56:57;;;;;;;6.40;5.10;;;;;;;20.25;51.68;101143.22;5040354;28;20407;-63
2022/11/02 09:59:26;;;;;;;7.43;4.65;;;;;;;21.14;50.56;101148.56;5032999;28;20057;-62
2022/11/02 10:02:17;;;;;;;6.57;5.88;;;;;;;20.71;49.70;101147.44;5033677;28;20073;-63
2022/11/02 10:04:47;;;;;;;6.10;5.35;;;;;;;21.12;48.60;101154.56;5037969;28;20049;-63
2022/11/02 10:07:32;;;;;;;8.02;4.60;;;;;;;21.73;49.15;101154.38;5041373;28;20045;-63
2022/11/02 10:10:17;;;;;;;6.63;4.93;;;;;;;22.96;48.17;101155.25;5041105;28;20053;-62
2022/11/02 10:13:02;;;;;;;7.45;4.28;;;;;;;23.78;46.97;101153.31;5047921;28;20045;-64
2022/11/02 10:15:55;;;;;;;9.88;4.30;;;;;;;23.16;44.34;101148.66;5040139;28;20504;-63
2022/11/02 10:18:26;;;;;;;5.15;4.65;;;;;;;22.24;45.31;101127.69;5035973;28;20053;-63
2022/11/02 10:20:55;;;;;;;5.43;4.38;;;;;;;22.06;44.82;101130.97;5037929;28;20415;-63
2022/11/02 10:23:41;;;;;;;5.50;4.43;;;;;;;21.84;43.79;101115.03;5041273;28;20496;-61
2022/11/02 10:26:18;;;;;;;6.40;4.20;;;;;;;21.14;44.31;101108.81;5046743;28;20423;-62
2022/11/02 10:28:55;;;;;;;4.45;4.07;;;;;;;20.71;45.24;101112.56;5044961;28;20151;-62
2022/11/02 10:31:26;;;;;;;4.55;4.10;;;;;;;20.39;45.63;101108.22;5042777;28;20484;-61
2022/11/02 10:33:56;;;;;;;4.47;4.07;;;;;;;19.64;45.94;101106.25;5035434;28;20075;-62
2022/11/02 10:36:38;;;;;;;6.85;4.93;;;;;;;19.53;46.46;101096.34;5039166;28;20136;-63
2022/11/02 10:39:19;;;;;;;11.32;4.88;;;;;;;19.15;47.53;101096.84;5032676;28;20050;-62
2022/11/02 10:41:55;;;;;;;5.10;4.70;;;;;;;19.72;47.09;101087.59;5039790;28;20387;-62
2022/11/02 10:44:38;;;;;;;5.25;4.57;;;;;;;19.41;46.82;101084.78;5043801;28;20049;-61
2022/11/02 10:47:14;;;;;;;5.28;4.93;;;;;;;18.85;47.18;101075.03;5032418;28;20049;-62
2022/11/02 10:50:14;;;;;;;9.10;4.88;;;;;;;18.38;48.96;101074.50;5036086;28;20052;-63
2022/11/02 10:52:44;;;;;;;4.80;4.40;;;;;;;18.14;49.43;101071.97;5041513;28;20045;-63
2022/11/02 10:55:30;;;;;;;4.75;4.35;;;;;;;17.75;49.93;101071.44;5037043;28;20057;-62
2022/11/02 10:57:59;;;;;;;7.50;5.97;;;;;;;18.04;50.34;101064.56;5039643;28;20057;-62
2022/11/02 11:00:31;;;;;;;6.35;4.50;;;;;;;18.00;49.82;101077.69;5046210;28;20061;-62
2022/11/02 11:03:09;;;;;;;4.28;3.97;;;;;;;17.87;50.09;101073.72;5040316;28;23134;-62
2022/11/02 11:05:51;;;;;;;8.05;5.50;;;;;;;18.08;50.67;101076.91;5039866;28;20405;-62
2022/11/02 11:08:30;;;;;;;5.03;4.63;;;;;;;18.06;50.30;101065.09;5042723;28;20052;-63
2022/11/02 11:11:13;;;;;;;7.45;5.13;;;;;;;18.21;50.69;101072.38;5045076;28;20820;-63
2022/11/02 11:13:42;;;;;;;6.80;5.60;;;;;;;18.50;50.08;101052.16;5043084;28;20493;-62
2022/11/02 11:16:34;;;;;;;4.40;3.85;;;;;;;18.83;49.03;101037.72;5025429;28;20057;-62
2022/11/02 11:19:03;;;;;;;6.25;4.65;;;;;;;19.00;49.37;101025.66;5040580;28;20060;-63
2022/11/02 11:21:50;;;;;;;4.90;4.40;;;;;;;18.90;49.06;101021.94;5042304;28;20045;-62
2022/11/02 11:24:26;;;;;;;6.45;4.72;;;;;;;19.13;48.76;101034.06;5047495;28;20049;-63
2022/11/02 11:27:11;;;;;;;3.85;3.55;;;;;;;19.58;47.93;101047.19;5045862;28;20055;-63
2022/11/02 11:29:44;;;;;;;3.83;3.53;;;;;;;19.54;47.76;101066.03;5047207;28;20071;-63
2022/11/02 11:32:26;;;;;;;5.88;4.00;;;;;;;19.82;46.92;101064.59;5039500;28;20120;-63
2022/11/02 11:35:06;;;;;;;7.10;5.75;;;;;;;20.56;45.83;101049.47;5037291;28;20539;-62
2022/11/02 11:37:33;;;;;;;5.22;4.32;;;;;;;20.91;45.59;101046.56;5046057;28;20050;-62
2022/11/02 11:40:04;;;;;;;6.88;4.85;;;;;;;21.70;44.06;101061.25;5044206;28;20056;-62
2022/11/02 11:42:35;;;;;;;7.25;5.05;;;;;;;22.62;43.68;101055.53;5037155;28;20352;-63
2022/11/02 11:45:01;;;;;;;10.40;5.40;;;;;;;24.00;42.29;101057.00;5045234;28;20060;-62
2022/11/02 11:47:34;;;;;;;6.15;5.20;;;;;;;24.92;41.27;101052.38;5034686;28;20422;-62
2022/11/02 11:50:05;;;;;;;6.90;5.20;;;;;;;25.93;39.94;101056.66;5040350;28;20057;-62
2022/11/02 11:53:21;;;;;;;8.65;5.80;;;;;;;26.64;40.16;101052.53;5040196;28;20463;-62
2022/11/02 11:55:53;;;;;;;7.80;5.97;;;;;;;28.63;37.64;101049.66;5046880;28;20418;-63
2022/11/02 11:58:27;;;;;;;6.10;5.35;;;;;;;29.65;35.09;101051.13;5042730;28;20522;-62